AirNav   Air Wisconsin pilot careers
 
 1572 users online  

CO65 Geary Ranch Airport
Westcliffe, Colorado, USA

GOING TO WESTCLIFFE?


FAA INFORMATION EFFECTIVE 24 MAY 2018

Location

FAA Identifier: CO65
Lat/Long: 38-02-45.0000N / 105-28-17.0130W
38-02.750000N / 105-28.283550W
38.0458333 / -105.4713925
(estimated)
Elevation: 8300 ft. / 2530 m (estimated)
Variation: 11E (1990)
From city: 1 mile N of WESTCLIFFE, CO
Time zone: UTC -6 (UTC -7 during Standard Time)
Zip code: 81252

Airport Operations

Airport use: Private use. Permission required prior to landing
Activation date: 01/1992
Control tower: no
ARTCC: DENVER CENTER
FSS: DENVER FLIGHT SERVICE STATION
Attendance: UNATNDD
Wind indicator: yes
Segmented circle: no

Airport Services

Fuel available: 100LL

Runway Information

Runway 7/25

Dimensions: 4200 x 30 ft. / 1280 x 9 m
Surface: gravel
RUNWAY 7  RUNWAY 25
Traffic pattern: leftleft
Obstructions: 30 ft. pline, marked, 1000 ft. from runwaynone

Airport Ownership and Management from official FAA records

Ownership: Privately-owned
Owner: WILLIAM SCOTT GEARY
5700 COUNTY ROAD 129
WESTCLIFFE, CO 81252
Phone (719) 371-9331
Manager: SCOTT GEARY
5700 COUNTY ROAD 129
WESTCLIFFE, CO 81252
Phone (719) 371-9331

Airport Operational Statistics

Aircraft based on the field: 1
Single engine airplanes: 1
    

Instrument Procedures

There are no published instrument procedures at CO65.

Some nearby airports with instrument procedures:

1V6 - Fremont County Airport (29 nm NE)
4V1 - Spanish Peaks Airfield (39 nm SE)
KANK - Harriet Alexander Field Airport (40 nm NW)
KALS - San Luis Valley Regional Airport/Bergman Field (41 nm SW)
KMVI - Monte Vista Municipal Airport (41 nm SW)
 
Loc | Ops | Rwys | IFR | FBO | Links
Com | Nav | Svcs | Stats | Notes

AirNav Hotels Sweepstakes
 
Area around CO65 (Geary Ranch Airport)
 
Road maps at: MapQuest Bing Google
 
Aerial photo
No photo
 
Sectional chart

 
Airport distance calculator
Flying to Geary Ranch Airport? Find the distance to fly.

From to CO65

Sunrise and sunset
Times for 25-May-2018
 Local
(UTC-6)
 Zulu
(UTC)
Morning civil twilight05:1511:15
Sunrise05:4511:45
Sunset20:1202:12
Evening civil twilight20:4302:43

Current date and time
Zulu (UTC)  25-May-2018 16:00:23
Local (UTC-6)  25-May-2018 10:00:23
 
METAR
K1V6 
29nm NE 
241610Z AUTO 27010G15KT 10SM CLR 27/M03 A3012 RMK AO2
KVTP 
36nm SE 
251536Z AUTO 22004KT 10SM CLR 17/M08 A3057 RMK AO2
KANK 
40nm NW 
251555Z AUTO 01003KT 10SM CLR 18/M02 A3037 RMK AO1 T01801021
KALS 
41nm SW 
251552Z AUTO 00000KT 10SM CLR 17/M06 A3031 RMK AO2 SLP186 T01721061 TSNO
KRCV 
46nm SW 
251535Z AUTO 07004KT 10SM CLR 17/M07 A3034 RMK AO2 T01661066
KMYP 
48nm NW 
251531Z AUTO 10SM CLR 10/M10 A3067 RMK AO2
KPUB 
48nm E 
251553Z AUTO VRB03KT 10SM CLR 27/03 A3009 RMK AO2 SLP120 T02720033
KFCS 
50nm NE 
251458Z AUTO 09003KT 10SM CLR 23/02 A3015 RMK AO2 SLP150 T02280023 50003 $
TAF
KALS 
41nm SW 
251120Z 2512/2612 VRB06KT P6SM SKC FM252000 21013KT P6SM SKC FM260400 17006KT P6SM SKC
KPUB 
48nm E 
251120Z 2512/2612 VRB06KT P6SM SKC FM251900 12010KT P6SM FEW120 FM260100 07008KT P6SM SKC FM260700 36006KT P6SM SKC
KFCS 
50nm NE 
251301Z 2513/2619 33009KT 9999 SKC QNH3010INS BECMG 2515/2516 16009KT 9999 SKC QNH3005INS BECMG 2603/2604 33009KT 9999 FEW200 QNH3003INS BECMG 2616/2617 17009KT 9999 FEW200 QNH2999INS TX30/2521Z TN11/2513Z
NOTAMs
Click for the latest NOTAMs
NOTAMs are issued by the DoD/FAA and will open in a separate window not controlled by AirNav.

 

 
 

Would you like to see your business listed on this page?

 If your business provides an interesting product or service to pilots, flight crews, aircraft, or users of the Geary Ranch Airport, you should consider listing it here.  To start the listing process, click on the button below
 
Add a business
 

Other Pages about Geary Ranch Airport

Update a link
 
Copyright © AirNav, LLC. All rights reserved. Privacy Policy  Contact